createdAt,value
2019-03-30T00:01:16.926Z,19.93
2019-03-30T00:03:45.595Z,21.30
2019-03-30T00:06:14.376Z,21.47
2019-03-30T00:08:43.341Z,21.70
2019-03-30T00:11:12.236Z,21.53
2019-03-30T00:13:41.081Z,21.40
2019-03-30T00:16:09.664Z,21.37
2019-03-30T00:18:41.210Z,22.20
2019-03-30T00:21:08.516Z,20.47
2019-03-30T00:23:37.124Z,22.87
2019-03-30T00:26:08.497Z,23.17
2019-03-30T00:28:37.128Z,22.70
2019-03-30T00:31:05.877Z,22.80
2019-03-30T00:33:34.588Z,21.80
2019-03-30T00:36:03.356Z,25.07
2019-03-30T00:38:32.272Z,23.97
2019-03-30T00:41:01.068Z,25.40
2019-03-30T00:43:29.720Z,25.00
2019-03-30T00:45:58.434Z,24.90
2019-03-30T00:48:27.194Z,25.53
2019-03-30T00:50:55.854Z,23.83
2019-03-30T00:53:24.631Z,25.40
2019-03-30T00:55:53.272Z,23.80
2019-03-30T00:58:22.170Z,26.77
2019-03-30T01:00:50.858Z,26.03
2019-03-30T01:03:19.432Z,25.87
2019-03-30T01:05:48.073Z,26.23
2019-03-30T01:08:16.914Z,25.60
2019-03-30T01:10:45.669Z,24.97
2019-03-30T01:13:14.426Z,25.10
2019-03-30T01:15:43.239Z,25.10
2019-03-30T01:18:11.949Z,24.63
2019-03-30T01:20:40.591Z,24.00
2019-03-30T01:23:09.406Z,23.90
2019-03-30T01:25:38.065Z,22.90
2019-03-30T01:28:06.759Z,23.27
2019-03-30T01:30:35.449Z,22.93
2019-03-30T01:33:04.279Z,22.43
2019-03-30T01:35:33.092Z,22.83
2019-03-30T01:38:01.838Z,21.63
2019-03-30T01:40:30.520Z,24.17
2019-03-30T01:42:59.300Z,22.10
2019-03-30T01:45:28.007Z,21.67
2019-03-30T01:47:56.584Z,20.67
2019-03-30T01:50:25.397Z,21.77
2019-03-30T01:52:54.131Z,23.37
2019-03-30T01:55:22.873Z,21.73
2019-03-30T01:57:51.497Z,20.87
2019-03-30T02:00:20.267Z,22.50
2019-03-30T02:02:48.899Z,22.77
2019-03-30T02:05:17.850Z,22.30
2019-03-30T02:07:47.028Z,22.63
2019-03-30T02:10:18.744Z,20.57
2019-03-30T02:12:47.517Z,22.40
2019-03-30T02:15:17.263Z,20.93
2019-03-30T02:17:45.929Z,22.07
2019-03-30T02:20:36.945Z,23.13
2019-03-30T02:23:05.781Z,22.03
2019-03-30T02:25:34.505Z,22.53
2019-03-30T02:28:06.603Z,22.20
2019-03-30T02:30:35.278Z,21.33
2019-03-30T02:33:04.092Z,21.90
2019-03-30T02:35:32.772Z,22.00
2019-03-30T02:38:01.488Z,22.03
2019-03-30T02:40:30.416Z,21.40
2019-03-30T02:42:59.404Z,21.40
2019-03-30T02:45:28.592Z,21.03
2019-03-30T02:47:57.582Z,20.10
2019-03-30T02:50:26.285Z,20.13
2019-03-30T02:52:55.042Z,21.03
2019-03-30T02:55:23.692Z,21.63
2019-03-30T02:57:52.441Z,20.80
2019-03-30T03:00:21.221Z,20.17
2019-03-30T03:02:49.991Z,20.47
2019-03-30T03:05:18.851Z,20.67
2019-03-30T03:07:47.604Z,20.70
2019-03-30T03:10:16.752Z,21.03
2019-03-30T03:12:45.505Z,20.33
2019-03-30T03:15:14.352Z,20.17
2019-03-30T03:17:43.107Z,21.50
2019-03-30T03:20:11.892Z,20.27
2019-03-30T03:22:40.554Z,19.77
2019-03-30T03:25:09.422Z,20.17
2019-03-30T03:27:38.371Z,19.73
2019-03-30T03:30:07.569Z,19.73
2019-03-30T03:32:36.285Z,20.30
2019-03-30T03:35:05.149Z,20.47
2019-03-30T03:37:44.459Z,19.83
2019-03-30T03:40:06.502Z,19.30
2019-03-30T03:42:35.548Z,19.23
2019-03-30T03:45:06.595Z,19.93
2019-03-30T03:47:35.397Z,20.77
2019-03-30T03:50:05.066Z,19.80
2019-03-30T03:52:33.810Z,19.37
2019-03-30T03:55:02.617Z,19.13
2019-03-30T03:57:34.196Z,20.20
2019-03-30T04:00:04.391Z,19.47
2019-03-30T04:02:36.165Z,18.63
2019-03-30T04:05:06.908Z,18.80
2019-03-30T04:07:38.619Z,19.33
2019-03-30T04:10:07.434Z,20.20
2019-03-30T04:12:37.446Z,19.80
2019-03-30T04:15:09.181Z,20.93
2019-03-30T04:17:38.616Z,20.07
2019-03-30T04:20:07.454Z,20.27
2019-03-30T04:22:36.077Z,20.70
2019-03-30T04:25:06.621Z,19.60
2019-03-30T04:27:35.311Z,20.33
2019-03-30T04:30:05.616Z,20.07
2019-03-30T04:32:34.250Z,20.03
2019-03-30T04:35:03.021Z,20.10
2019-03-30T04:37:31.673Z,20.27
2019-03-30T04:40:00.516Z,20.70
2019-03-30T04:42:29.202Z,20.37
2019-03-30T04:44:57.988Z,20.93
2019-03-30T04:47:26.692Z,19.57
2019-03-30T04:49:55.307Z,20.20
2019-03-30T04:52:23.936Z,19.77
2019-03-30T04:54:52.681Z,20.17
2019-03-30T04:57:21.378Z,20.23
2019-03-30T04:59:50.124Z,20.33
2019-03-30T05:02:20.580Z,21.90
2019-03-30T05:04:49.160Z,21.23
2019-03-30T05:07:17.856Z,20.43
2019-03-30T05:09:46.531Z,20.70
2019-03-30T05:12:15.122Z,20.77
2019-03-30T05:14:43.870Z,19.50
2019-03-30T05:17:12.522Z,20.87
2019-03-30T05:19:41.648Z,21.23
2019-03-30T05:22:12.953Z,20.27
2019-03-30T05:24:41.138Z,20.73
2019-03-30T05:27:09.723Z,19.50
2019-03-30T05:29:38.381Z,19.80
2019-03-30T05:32:07.117Z,20.60
2019-03-30T05:34:35.807Z,19.63
2019-03-30T05:37:04.572Z,20.33
2019-03-30T05:39:33.472Z,19.40
2019-03-30T05:42:02.148Z,20.30
2019-03-30T05:44:30.819Z,19.30
2019-03-30T05:46:59.704Z,18.67
2019-03-30T05:49:28.306Z,19.53
2019-03-30T05:54:24.849Z,20.27
2019-03-30T05:56:53.553Z,19.37
2019-03-30T05:59:27.474Z,19.97
2019-03-30T06:01:56.551Z,20.63
2019-03-30T06:04:25.282Z,19.30
2019-03-30T06:06:53.932Z,20.47
2019-03-30T06:09:22.522Z,19.40
2019-03-30T06:11:51.324Z,18.83
2019-03-30T06:14:20.402Z,18.93
2019-03-30T06:16:49.102Z,19.80
2019-03-30T06:19:17.753Z,18.53
2019-03-30T06:21:46.409Z,18.60
2019-03-30T06:24:15.255Z,18.80
2019-03-30T06:26:43.933Z,21.07
2019-03-30T06:29:12.641Z,18.77
2019-03-30T06:31:41.452Z,19.50
2019-03-30T06:34:10.201Z,19.50
2019-03-30T06:36:39.143Z,20.40
2019-03-30T06:39:07.826Z,18.87
2019-03-30T06:41:36.445Z,20.13
2019-03-30T06:44:05.745Z,20.03
2019-03-30T06:46:34.286Z,20.00
2019-03-30T06:49:02.931Z,20.90
2019-03-30T06:51:32.579Z,21.00
2019-03-30T06:54:01.293Z,20.17
2019-03-30T06:56:29.895Z,21.83
2019-03-30T06:59:00.944Z,21.73
2019-03-30T07:01:30.365Z,22.13
2019-03-30T07:03:59.127Z,21.50
2019-03-30T07:06:29.756Z,20.50
2019-03-30T07:09:00.421Z,20.10
2019-03-30T07:11:32.165Z,20.90
2019-03-30T07:14:04.170Z,20.43
2019-03-30T07:16:35.886Z,20.33
2019-03-30T07:19:08.803Z,20.17
2019-03-30T07:21:37.867Z,20.53
2019-03-30T07:24:06.815Z,18.83
2019-03-30T07:26:35.479Z,20.90
2019-03-30T07:29:04.493Z,20.03
2019-03-30T07:31:33.194Z,21.30
2019-03-30T07:34:01.940Z,20.90
2019-03-30T07:36:31.175Z,19.93
2019-03-30T07:38:59.749Z,19.47
2019-03-30T07:41:28.765Z,21.30
2019-03-30T07:43:57.467Z,20.10
2019-03-30T07:46:26.165Z,20.73
2019-03-30T07:48:54.934Z,21.77
2019-03-30T07:51:23.651Z,22.83
2019-03-30T07:53:52.276Z,22.40
2019-03-30T07:56:20.922Z,21.53
2019-03-30T07:58:54.264Z,22.80
2019-03-30T08:01:22.958Z,23.23
2019-03-30T08:03:59.909Z,22.80
2019-03-30T08:06:30.944Z,24.33
2019-03-30T08:08:59.830Z,26.63
2019-03-30T08:11:28.442Z,25.63
2019-03-30T08:13:57.041Z,28.10
2019-03-30T08:16:25.682Z,28.83
2019-03-30T08:18:54.338Z,28.33
2019-03-30T08:21:26.385Z,28.60
2019-03-30T08:23:55.150Z,32.50
2019-03-30T08:26:24.115Z,31.97
2019-03-30T08:28:52.919Z,31.63
2019-03-30T08:31:21.858Z,32.43
2019-03-30T08:33:50.789Z,29.80
2019-03-30T08:36:19.754Z,31.57
2019-03-30T08:38:51.539Z,30.93
2019-03-30T08:41:20.264Z,31.60
2019-03-30T08:43:49.042Z,29.83
2019-03-30T08:46:22.395Z,31.00
2019-03-30T08:48:51.099Z,31.03
2019-03-30T08:51:23.172Z,31.27
2019-03-30T08:53:54.809Z,29.90
2019-03-30T08:56:22.353Z,30.77
2019-03-30T08:58:51.195Z,30.97
2019-03-30T09:01:20.707Z,30.47
2019-03-30T09:03:49.340Z,29.50
2019-03-30T09:06:23.913Z,29.63
2019-03-30T09:08:52.691Z,31.77
2019-03-30T09:11:21.264Z,33.27
2019-03-30T09:13:49.862Z,30.93
2019-03-30T09:16:18.475Z,28.83
2019-03-30T09:18:57.621Z,28.60
2019-03-30T09:21:24.288Z,29.20
2019-03-30T09:23:53.258Z,27.67
2019-03-30T09:26:22.063Z,26.97
2019-03-30T09:28:50.742Z,28.10
2019-03-30T09:31:19.419Z,27.40
2019-03-30T09:33:48.137Z,27.17
2019-03-30T09:36:16.926Z,25.47
2019-03-30T09:38:45.690Z,24.83
2019-03-30T09:41:14.334Z,23.40
2019-03-30T09:43:43.045Z,22.60
2019-03-30T09:46:11.735Z,22.37
2019-03-30T09:48:40.426Z,21.13
2019-03-30T09:51:11.050Z,20.87
2019-03-30T09:53:45.674Z,19.00
2019-03-30T09:56:17.353Z,18.13
2019-03-30T09:58:46.035Z,17.32
2019-03-30T10:01:14.983Z,16.70
2019-03-30T10:03:43.647Z,17.70
2019-03-30T10:06:12.459Z,18.02
2019-03-30T10:08:41.143Z,18.23
2019-03-30T10:11:09.841Z,18.67
2019-03-30T10:13:38.574Z,19.82
2019-03-30T10:16:07.433Z,19.37
2019-03-30T10:18:36.133Z,19.43
2019-03-30T10:21:07.759Z,18.63
2019-03-30T10:23:36.398Z,18.50
2019-03-30T10:26:05.174Z,18.63
2019-03-30T10:28:33.898Z,17.67
2019-03-30T10:31:02.494Z,18.65
2019-03-30T10:33:31.580Z,19.65
2019-03-30T10:36:00.185Z,17.37
2019-03-30T10:38:28.853Z,19.23
2019-03-30T10:40:57.608Z,19.75
2019-03-30T10:43:26.286Z,20.55
2019-03-30T10:45:55.044Z,19.85
2019-03-30T10:48:23.854Z,18.40
2019-03-30T10:50:52.559Z,18.73
2019-03-30T10:53:21.312Z,19.15
2019-03-30T10:55:50.216Z,18.70
2019-03-30T10:58:19.178Z,18.85
2019-03-30T11:00:47.911Z,18.70
2019-03-30T11:03:17.084Z,18.82
2019-03-30T11:08:51.276Z,17.85
2019-03-30T11:11:19.882Z,18.25
2019-03-30T11:13:48.675Z,19.15
2019-03-30T11:16:17.351Z,19.17
2019-03-30T11:18:46.033Z,18.77
2019-03-30T11:21:14.764Z,19.37
2019-03-30T11:23:43.584Z,19.70
2019-03-30T11:26:12.408Z,19.87
2019-03-30T11:28:41.061Z,19.20
2019-03-30T11:31:09.603Z,20.32
2019-03-30T11:33:38.258Z,19.98
2019-03-30T11:36:06.934Z,19.48
2019-03-30T11:38:35.806Z,19.48
2019-03-30T11:41:04.683Z,20.02
2019-03-30T11:43:33.386Z,20.62
2019-03-30T11:46:02.214Z,19.85
2019-03-30T11:48:30.916Z,19.92
2019-03-30T11:50:59.546Z,19.32
2019-03-30T11:53:28.237Z,19.32
2019-03-30T11:55:57.156Z,20.48
2019-03-30T11:58:25.945Z,20.57
2019-03-30T12:00:54.693Z,20.62
2019-03-30T12:03:23.304Z,19.57
2019-03-30T12:05:52.120Z,18.70
2019-03-30T12:08:20.738Z,19.20
2019-03-30T12:10:49.408Z,20.68
2019-03-30T12:13:18.054Z,19.25
2019-03-30T12:15:46.701Z,19.32
2019-03-30T12:18:15.513Z,19.45
2019-03-30T12:20:44.181Z,19.32
2019-03-30T12:23:12.967Z,18.82
2019-03-30T12:25:41.802Z,17.77
2019-03-30T12:28:10.569Z,19.27
2019-03-30T12:30:39.230Z,19.85
2019-03-30T12:33:08.007Z,19.45
2019-03-30T12:35:36.797Z,19.48
2019-03-30T12:38:07.017Z,20.05
2019-03-30T12:40:38.534Z,19.80
2019-03-30T12:43:07.320Z,20.70
2019-03-30T12:45:36.059Z,19.90
2019-03-30T12:48:04.834Z,18.60
2019-03-30T12:50:33.588Z,18.70
2019-03-30T12:53:02.283Z,18.95
2019-03-30T12:55:31.157Z,19.17
2019-03-30T12:57:59.867Z,19.85
2019-03-30T13:00:28.620Z,19.35
2019-03-30T13:02:57.340Z,18.60
2019-03-30T13:05:26.312Z,20.43
2019-03-30T13:07:55.389Z,19.57
2019-03-30T13:10:24.383Z,20.13
2019-03-30T13:12:53.265Z,19.57
2019-03-30T13:15:23.620Z,20.52
2019-03-30T13:17:52.364Z,19.85
2019-03-30T13:20:21.048Z,19.62
2019-03-30T13:22:49.661Z,19.45
2019-03-30T13:25:18.384Z,19.45
2019-03-30T13:27:48.637Z,19.87
2019-03-30T13:30:19.184Z,18.05
2019-03-30T13:32:47.942Z,21.13
2019-03-30T13:35:16.810Z,20.20
2019-03-30T13:37:45.543Z,20.73
2019-03-30T13:40:14.591Z,20.68
2019-03-30T13:42:43.429Z,20.60
2019-03-30T13:45:12.341Z,20.60
2019-03-30T13:47:41.269Z,20.32
2019-03-30T13:50:12.152Z,20.62
2019-03-30T13:52:40.869Z,20.62
2019-03-30T13:55:09.773Z,19.77
2019-03-30T13:57:39.354Z,20.00
2019-03-30T14:00:09.066Z,20.68
2019-03-30T14:02:38.002Z,18.70
2019-03-30T14:05:07.188Z,19.57
2019-03-30T14:07:36.377Z,20.37
2019-03-30T14:10:07.529Z,19.10
2019-03-30T14:12:36.291Z,21.02
2019-03-30T14:15:09.214Z,20.97
2019-03-30T14:17:36.715Z,22.43
2019-03-30T14:20:07.462Z,20.70
2019-03-30T14:22:36.769Z,20.13
2019-03-30T14:25:06.883Z,20.57
2019-03-30T14:27:35.782Z,21.47
2019-03-30T14:30:09.890Z,21.97
2019-03-30T14:32:38.747Z,22.07
2019-03-30T14:35:07.849Z,21.30
2019-03-30T14:37:36.629Z,22.97
2019-03-30T14:40:07.919Z,23.17
2019-03-30T14:42:36.556Z,22.20
2019-03-30T14:45:07.941Z,22.93
2019-03-30T14:47:36.943Z,22.03
2019-03-30T14:50:09.639Z,22.13
2019-03-30T14:52:38.349Z,23.50
2019-03-30T14:55:08.905Z,24.20
2019-03-30T14:57:37.984Z,24.40
2019-03-30T15:00:09.683Z,24.40
2019-03-30T15:02:38.532Z,25.53
2019-03-30T15:05:10.241Z,26.13
2019-03-30T15:07:39.055Z,26.07
2019-03-30T15:10:10.087Z,26.30
2019-03-30T15:12:39.140Z,26.57
2019-03-30T15:15:09.526Z,28.20
2019-03-30T15:17:40.638Z,29.27
2019-03-30T15:20:13.687Z,28.37
2019-03-30T15:22:42.493Z,30.77
2019-03-30T15:25:14.130Z,31.40
2019-03-30T15:27:42.817Z,33.37
2019-03-30T15:30:11.862Z,34.20
2019-03-30T15:32:40.665Z,33.13
2019-03-30T15:35:09.681Z,33.77
2019-03-30T15:37:38.597Z,34.27
2019-03-30T15:40:07.908Z,36.83
2019-03-30T15:42:39.895Z,36.93
2019-03-30T15:45:09.283Z,34.90
2019-03-30T15:47:38.139Z,37.90
2019-03-30T15:50:08.324Z,38.33
2019-03-30T15:52:37.272Z,36.40
2019-03-30T15:55:07.413Z,38.17
2019-03-30T15:57:37.056Z,38.43
2019-03-30T16:00:10.532Z,39.07
2019-03-30T16:02:39.288Z,43.47
2019-03-30T16:05:08.559Z,43.97
2019-03-30T16:07:37.378Z,45.03
2019-03-30T16:10:09.314Z,45.30
2019-03-30T16:12:38.153Z,45.20
2019-03-30T16:15:07.026Z,44.60
2019-03-30T16:17:35.640Z,47.13
2019-03-30T16:20:08.611Z,44.47
2019-03-30T16:22:37.537Z,45.37
2019-03-30T16:25:09.445Z,44.30
2019-03-30T16:27:39.431Z,45.60
2019-03-30T16:30:09.959Z,44.03
2019-03-30T16:32:38.690Z,44.63
2019-03-30T16:35:08.259Z,45.10
2019-03-30T16:37:37.144Z,45.53
2019-03-30T16:40:07.479Z,45.40
2019-03-30T16:42:36.477Z,43.40
2019-03-30T16:45:07.407Z,43.97
2019-03-30T16:47:36.370Z,43.00
2019-03-30T16:50:07.542Z,44.23
2019-03-30T16:52:36.275Z,43.33
2019-03-30T16:55:05.816Z,45.10
2019-03-30T16:57:43.231Z,43.83
2019-03-30T17:00:07.162Z,43.77
2019-03-30T17:02:36.216Z,44.23
2019-03-30T17:05:09.337Z,44.23
2019-03-30T17:07:38.049Z,43.70
2019-03-30T17:10:08.855Z,43.27
2019-03-30T17:12:38.287Z,42.40
2019-03-30T17:15:08.016Z,46.10
2019-03-30T17:17:38.339Z,44.77
2019-03-30T17:20:12.006Z,44.43
2019-03-30T17:22:40.726Z,44.97
2019-03-30T17:25:10.069Z,45.93
2019-03-30T17:27:38.948Z,45.27
2019-03-30T17:30:08.659Z,47.57
2019-03-30T17:32:38.529Z,47.90
2019-03-30T17:35:08.254Z,46.17
2019-03-30T17:37:37.468Z,47.83
2019-03-30T17:40:12.330Z,47.03
2019-03-30T17:42:41.409Z,50.50
2019-03-30T17:45:10.831Z,45.37
2019-03-30T17:47:39.607Z,45.93
2019-03-30T17:50:09.419Z,47.00
2019-03-30T17:52:40.035Z,48.33
2019-03-30T17:55:08.991Z,46.87
2019-03-30T17:57:37.726Z,48.13
2019-03-30T18:00:16.066Z,49.83
2019-03-30T18:02:45.106Z,48.90
2019-03-30T18:05:13.888Z,48.30
2019-03-30T18:07:42.680Z,48.20
2019-03-30T18:10:13.287Z,52.13
2019-03-30T18:12:42.369Z,54.07
2019-03-30T18:15:12.347Z,53.20
2019-03-30T18:17:41.317Z,53.63
2019-03-30T18:20:11.435Z,55.97
2019-03-30T18:22:40.294Z,54.77
2019-03-30T18:25:09.243Z,57.90
2019-03-30T18:27:37.867Z,56.97
2019-03-30T18:30:07.743Z,56.57
2019-03-30T18:32:36.650Z,57.57
2019-03-30T18:35:06.867Z,57.10
2019-03-30T18:37:36.442Z,59.30
2019-03-30T18:40:07.560Z,57.40
2019-03-30T18:42:36.322Z,58.67
2019-03-30T18:45:07.462Z,59.73
2019-03-30T18:47:36.143Z,61.67
2019-03-30T18:50:07.222Z,61.17
2019-03-30T18:52:39.287Z,61.33
2019-03-30T18:55:10.334Z,59.90
2019-03-30T18:57:39.137Z,62.43
2019-03-30T19:00:08.309Z,62.30
2019-03-30T19:02:37.167Z,62.50
2019-03-30T19:05:06.603Z,64.73
2019-03-30T19:07:35.403Z,59.47
2019-03-30T19:10:06.943Z,61.50
2019-03-30T19:12:35.819Z,64.63
2019-03-30T19:15:06.941Z,60.17
2019-03-30T19:17:36.206Z,61.70
2019-03-30T19:20:10.100Z,62.90
2019-03-30T19:22:38.841Z,62.07
2019-03-30T19:25:08.176Z,60.83
2019-03-30T19:27:37.102Z,61.67
2019-03-30T19:30:08.196Z,65.53
2019-03-30T19:32:36.898Z,64.33
2019-03-30T19:35:09.234Z,64.37
2019-03-30T19:37:38.160Z,67.07
2019-03-30T19:40:07.356Z,69.50
2019-03-30T19:42:38.676Z,70.67
2019-03-30T19:45:09.807Z,69.47
2019-03-30T19:47:38.796Z,68.07
2019-03-30T19:50:08.574Z,67.37
2019-03-30T19:52:40.046Z,67.77
2019-03-30T19:55:07.780Z,67.77
2019-03-30T19:57:36.738Z,65.60
2019-03-30T20:00:08.714Z,66.93
2019-03-30T20:02:37.681Z,63.83
2019-03-30T20:05:07.813Z,63.23
2019-03-30T20:07:37.028Z,63.40
2019-03-30T20:10:07.136Z,65.37
2019-03-30T20:12:35.932Z,64.93
2019-03-30T20:15:07.198Z,64.07
2019-03-30T20:17:36.038Z,64.33
2019-03-30T20:20:08.066Z,67.43
2019-03-30T20:22:37.024Z,65.03
2019-03-30T20:25:08.375Z,65.17
2019-03-30T20:27:37.232Z,60.53
2019-03-30T20:30:09.101Z,63.60
2019-03-30T20:32:38.142Z,59.80
2019-03-30T20:35:08.433Z,62.50
2019-03-30T20:37:37.166Z,66.23
2019-03-30T20:40:09.373Z,65.83
2019-03-30T20:42:38.125Z,63.03
2019-03-30T20:45:07.897Z,64.10
2019-03-30T20:47:36.944Z,63.40
2019-03-30T20:50:07.967Z,63.93
2019-03-30T20:52:36.919Z,61.87
2019-03-30T20:55:06.894Z,59.87
2019-03-30T20:57:35.686Z,65.60
2019-03-30T21:00:07.055Z,65.30
2019-03-30T21:02:35.851Z,63.00
2019-03-30T21:05:06.114Z,66.27
2019-03-30T21:07:34.785Z,65.67
2019-03-30T21:10:10.266Z,66.97
2019-03-30T21:12:37.806Z,68.47
2019-03-30T21:15:08.267Z,69.50
2019-03-30T21:17:37.109Z,70.27
2019-03-30T21:20:06.662Z,69.27
2019-03-30T21:22:36.906Z,72.10
2019-03-30T21:25:06.432Z,71.37
2019-03-30T21:27:35.230Z,71.37
2019-03-30T21:30:08.801Z,71.80
2019-03-30T21:32:37.456Z,69.50
2019-03-30T21:35:08.379Z,68.63
2019-03-30T21:37:38.771Z,67.93
2019-03-30T21:40:07.692Z,71.07
2019-03-30T21:42:36.533Z,68.23
2019-03-30T21:45:07.398Z,65.03
2019-03-30T21:47:37.668Z,68.83
2019-03-30T21:50:07.648Z,62.83
2019-03-30T21:52:39.080Z,67.20
2019-03-30T21:55:08.210Z,69.40
2019-03-30T21:57:36.952Z,63.93
2019-03-30T22:00:10.992Z,65.13
2019-03-30T22:02:38.752Z,68.30
2019-03-30T22:05:07.805Z,69.77
2019-03-30T22:07:37.018Z,67.37
2019-03-30T22:10:08.410Z,67.17
2019-03-30T22:12:39.589Z,70.60
2019-03-30T22:15:08.906Z,65.67
2019-03-30T22:17:37.594Z,69.40
2019-03-30T22:20:07.838Z,68.83
2019-03-30T22:22:36.565Z,65.33
2019-03-30T22:25:06.171Z,69.13
2019-03-30T22:27:37.846Z,65.03
2019-03-30T22:30:08.262Z,68.17
2019-03-30T22:32:37.042Z,67.70
2019-03-30T22:35:07.982Z,66.27
2019-03-30T22:37:36.818Z,64.57
2019-03-30T22:40:06.996Z,68.03
2019-03-30T22:42:35.717Z,68.40
2019-03-30T22:45:06.016Z,69.07
2019-03-30T22:47:34.696Z,69.07
2019-03-30T22:50:05.155Z,67.53
2019-03-30T22:52:35.333Z,70.37
2019-03-30T22:55:05.645Z,72.63
2019-03-30T22:57:34.250Z,70.27
2019-03-30T23:00:03.588Z,70.97
2019-03-30T23:02:32.269Z,70.43
2019-03-30T23:05:00.987Z,68.93
2019-03-30T23:07:29.613Z,71.40
2019-03-30T23:09:58.273Z,69.17
2019-03-30T23:12:29.822Z,71.40
2019-03-30T23:14:58.554Z,69.83
2019-03-30T23:17:28.788Z,72.47
2019-03-30T23:19:57.535Z,70.67
2019-03-30T23:22:26.160Z,68.37
2019-03-30T23:24:56.132Z,73.70
2019-03-30T23:27:24.711Z,72.07
2019-03-30T23:29:53.367Z,69.67
2019-03-30T23:32:22.240Z,67.47
2019-03-30T23:34:50.833Z,69.73
2019-03-30T23:37:19.532Z,67.83
2019-03-30T23:39:48.224Z,66.17
2019-03-30T23:42:17.012Z,66.83
2019-03-30T23:44:45.677Z,66.67
2019-03-30T23:47:14.539Z,65.27
2019-03-30T23:49:43.254Z,63.47
2019-03-30T23:52:11.933Z,65.57
2019-03-30T23:54:40.854Z,62.03
2019-03-30T23:57:09.684Z,64.63
2019-03-30T23:59:38.327Z,65.60
